createdAt,value
2023-07-15T00:00:54.557Z,26.38
2023-07-15T00:05:58.503Z,26.36
2023-07-15T00:11:01.490Z,26.32
2023-07-15T00:16:05.832Z,26.31
2023-07-15T00:21:14.254Z,26.33
2023-07-15T00:26:17.210Z,26.31
2023-07-15T00:31:21.666Z,26.30
2023-07-15T00:36:24.975Z,26.31
2023-07-15T00:41:29.106Z,26.30
2023-07-15T00:47:13.861Z,26.30
2023-07-15T00:52:17.788Z,26.24
2023-07-15T00:57:20.650Z,26.25
2023-07-15T01:02:25.068Z,26.23
2023-07-15T01:07:28.003Z,26.20
2023-07-15T01:12:31.266Z,26.17
2023-07-15T01:17:35.554Z,26.15
2023-07-15T01:22:39.831Z,26.11
2023-07-15T01:27:43.029Z,26.09
2023-07-15T01:32:45.849Z,26.04
2023-07-15T01:37:50.088Z,26.03
2023-07-15T01:42:53.784Z,26.00
2023-07-15T01:47:56.653Z,26.01
2023-07-15T01:53:01.161Z,25.34
2023-07-15T01:58:04.147Z,24.70
2023-07-15T02:03:07.123Z,24.50
2023-07-15T02:08:11.399Z,24.57
2023-07-15T02:13:14.246Z,24.14
2023-07-15T02:18:17.054Z,24.32
2023-07-15T02:23:21.737Z,24.55
2023-07-15T02:28:27.732Z,24.50
2023-07-15T02:33:31.553Z,24.40
2023-07-15T02:38:36.171Z,24.42
2023-07-15T02:43:39.040Z,24.31
2023-07-15T02:48:42.240Z,23.91
2023-07-15T02:53:49.585Z,23.83
2023-07-15T02:58:52.371Z,23.59
2023-07-15T03:03:55.211Z,23.30
2023-07-15T03:08:59.442Z,23.10
2023-07-15T03:14:02.607Z,23.03
2023-07-15T03:19:05.553Z,22.95
2023-07-15T03:24:10.439Z,22.91
2023-07-15T03:29:15.735Z,22.78
2023-07-15T03:34:19.709Z,22.99
2023-07-15T03:39:24.360Z,22.97
2023-07-15T03:44:27.257Z,23.03
2023-07-15T03:49:30.026Z,22.92
2023-07-15T03:54:34.171Z,22.91
2023-07-15T03:59:37.088Z,22.83
2023-07-15T04:04:39.929Z,22.90
2023-07-15T04:09:44.174Z,22.80
2023-07-15T04:14:47.025Z,22.74
2023-07-15T04:19:49.856Z,22.74
2023-07-15T04:24:54.023Z,22.80
2023-07-15T04:29:57.015Z,22.70
2023-07-15T04:34:59.833Z,22.88
2023-07-15T04:40:05.333Z,23.02
2023-07-15T04:45:09.107Z,23.07
2023-07-15T04:50:11.938Z,23.08
2023-07-15T04:55:16.872Z,23.17
2023-07-15T05:00:21.650Z,23.21
2023-07-15T05:05:24.798Z,23.28
2023-07-15T05:10:29.161Z,23.36
2023-07-15T05:15:32.764Z,23.58
2023-07-15T05:20:35.685Z,23.56
2023-07-15T05:25:39.886Z,23.55
2023-07-15T05:30:43.024Z,23.62
2023-07-15T05:35:45.972Z,23.73
2023-07-15T05:40:50.165Z,23.72
2023-07-15T05:45:53.108Z,23.86
2023-07-15T05:50:55.897Z,23.89
2023-07-15T05:56:00.049Z,23.94
2023-07-15T06:01:02.887Z,24.10
2023-07-15T06:06:05.880Z,24.15
2023-07-15T06:11:12.142Z,24.23
2023-07-15T06:16:15.221Z,24.25
2023-07-15T06:21:18.148Z,24.38
2023-07-15T06:26:22.508Z,24.44
2023-07-15T06:31:25.723Z,24.50
2023-07-15T06:36:28.750Z,24.64
2023-07-15T06:41:33.040Z,24.73
2023-07-15T06:46:36.129Z,24.78
2023-07-15T06:51:39.030Z,24.85
2023-07-15T06:56:43.296Z,24.96
2023-07-15T07:01:46.176Z,25.06
2023-07-15T07:06:49.009Z,24.83
2023-07-15T07:11:53.239Z,24.86
2023-07-15T07:16:56.135Z,24.99
2023-07-15T07:21:58.937Z,25.14
2023-07-15T07:27:03.342Z,25.34
2023-07-15T07:32:07.234Z,25.41
2023-07-15T07:37:10.634Z,25.48
2023-07-15T07:42:14.901Z,25.54
2023-07-15T07:47:18.052Z,25.57
2023-07-15T07:52:20.893Z,25.64
2023-07-15T07:57:25.046Z,25.70
2023-07-15T08:02:28.177Z,25.71
2023-07-15T08:07:31.083Z,25.73
2023-07-15T08:12:35.411Z,25.77
2023-07-15T08:17:38.319Z,25.80
2023-07-15T08:22:41.306Z,25.84
2023-07-15T08:27:45.694Z,25.87
2023-07-15T08:32:48.562Z,25.88
2023-07-15T08:37:54.109Z,25.90
2023-07-15T08:42:58.906Z,25.94
2023-07-15T08:48:01.965Z,25.95
2023-07-15T08:53:05.028Z,26.03
2023-07-15T08:58:09.241Z,26.05
2023-07-15T09:03:12.040Z,26.03
2023-07-15T09:08:16.669Z,26.05
2023-07-15T09:13:25.669Z,26.16
2023-07-15T09:18:28.522Z,26.20
2023-07-15T09:23:31.351Z,26.23
2023-07-15T09:28:35.661Z,26.25
2023-07-15T09:33:40.782Z,26.30
2023-07-15T09:38:43.867Z,26.28
2023-07-15T09:43:48.926Z,26.35
2023-07-15T09:48:53.230Z,26.37
2023-07-15T09:53:57.102Z,26.39
2023-07-15T09:59:04.909Z,26.43
2023-07-15T10:04:12.817Z,26.46
2023-07-15T10:09:15.853Z,26.48
2023-07-15T10:14:21.792Z,26.48
2023-07-15T10:19:48.886Z,26.57
2023-07-15T10:24:54.884Z,26.59
2023-07-15T10:30:17.346Z,26.62
2023-07-15T10:35:20.878Z,26.65
2023-07-15T10:40:49.809Z,26.65
2023-07-15T10:45:54.841Z,26.71
2023-07-15T10:50:58.359Z,26.74
2023-07-15T10:56:02.092Z,26.82
2023-07-15T11:01:07.044Z,26.83
2023-07-15T11:06:11.063Z,26.89
2023-07-15T11:11:14.310Z,26.91
2023-07-15T11:16:19.209Z,26.94
2023-07-15T11:21:23.340Z,26.96
2023-07-15T11:26:26.932Z,27.02
2023-07-15T11:31:31.257Z,27.06
2023-07-15T11:36:34.315Z,27.09
2023-07-15T11:41:38.416Z,27.15
2023-07-15T11:46:46.141Z,27.20
2023-07-15T11:51:49.017Z,27.23
2023-07-15T11:56:56.692Z,27.27
2023-07-15T12:02:04.804Z,27.37
2023-07-15T12:07:08.001Z,27.42
2023-07-15T12:12:10.952Z,27.49
2023-07-15T12:17:15.374Z,27.54
2023-07-15T12:22:18.212Z,27.56
2023-07-15T12:27:21.336Z,27.59
2023-07-15T12:32:26.594Z,27.68
2023-07-15T12:37:29.683Z,27.74
2023-07-15T12:42:32.554Z,27.82
2023-07-15T12:47:36.831Z,27.72
2023-07-15T12:52:39.928Z,27.76
2023-07-15T12:57:45.424Z,27.86
2023-07-15T13:02:50.404Z,27.97
2023-07-15T13:07:54.132Z,28.08
2023-07-15T13:12:57.039Z,28.13
2023-07-15T13:18:01.501Z,28.16
2023-07-15T13:23:04.743Z,28.20
2023-07-15T13:28:08.223Z,28.22
2023-07-15T13:33:12.538Z,28.23
2023-07-15T13:38:15.559Z,28.24
2023-07-15T13:43:18.427Z,28.33
2023-07-15T13:48:22.658Z,28.24
2023-07-15T13:53:25.481Z,28.21
2023-07-15T13:58:28.296Z,28.28
2023-07-15T14:03:32.528Z,28.33
2023-07-15T14:08:35.401Z,28.41
2023-07-15T14:13:38.538Z,28.51
2023-07-15T14:18:43.197Z,28.52
2023-07-15T14:23:46.077Z,28.53
2023-07-15T14:28:48.928Z,28.63
2023-07-15T14:33:55.345Z,28.74
2023-07-15T14:38:58.422Z,28.80
2023-07-15T14:44:01.356Z,28.92
2023-07-15T14:49:05.743Z,29.04
2023-07-15T14:54:09.013Z,28.93
2023-07-15T14:59:11.873Z,28.99
2023-07-15T15:04:16.151Z,29.15
2023-07-15T15:09:19.075Z,29.22
2023-07-15T15:14:22.643Z,29.20
2023-07-15T15:19:27.499Z,29.19
2023-07-15T15:24:30.731Z,29.39
2023-07-15T15:29:33.552Z,29.77
2023-07-15T15:34:37.951Z,30.19
2023-07-15T15:39:42.209Z,29.65
2023-07-15T15:44:45.087Z,29.83
2023-07-15T15:49:49.282Z,29.17
2023-07-15T15:54:52.121Z,28.92
2023-07-15T15:59:56.924Z,28.73
2023-07-15T16:05:01.227Z,28.67
2023-07-15T16:10:04.439Z,28.57
2023-07-15T16:15:08.637Z,28.51
2023-07-15T16:20:13.360Z,28.46
2023-07-15T16:25:16.380Z,28.37
2023-07-15T16:30:19.240Z,28.30
2023-07-15T16:35:23.441Z,28.28
2023-07-15T16:40:26.393Z,28.30
2023-07-15T16:45:29.522Z,28.28
2023-07-15T16:50:33.743Z,28.27
2023-07-15T16:55:36.744Z,28.26
2023-07-15T17:00:39.622Z,28.25
2023-07-15T17:05:43.870Z,28.25
2023-07-15T17:10:46.717Z,28.22
2023-07-15T17:15:49.583Z,28.27
2023-07-15T17:20:54.184Z,28.30
2023-07-15T17:25:57.036Z,28.40
2023-07-15T17:30:59.993Z,28.48
2023-07-15T17:36:04.426Z,28.54
2023-07-15T17:41:07.363Z,28.51
2023-07-15T17:46:10.327Z,28.49
2023-07-15T17:51:15.011Z,28.47
2023-07-15T17:56:19.504Z,28.48
2023-07-15T18:01:22.398Z,28.50
2023-07-15T18:06:26.882Z,28.53
2023-07-15T18:11:29.733Z,28.55
2023-07-15T18:16:32.729Z,28.51
2023-07-15T18:21:37.211Z,28.53
2023-07-15T18:26:40.068Z,28.54
2023-07-15T18:31:42.979Z,28.50
2023-07-15T18:36:47.348Z,28.42
2023-07-15T18:41:50.288Z,28.33
2023-07-15T18:46:53.189Z,28.36
2023-07-15T18:51:57.452Z,28.32
2023-07-15T18:57:12.159Z,28.32
2023-07-15T19:02:23.490Z,28.25
2023-07-15T19:07:30.555Z,28.21
2023-07-15T19:12:33.430Z,28.28
2023-07-15T19:17:36.989Z,28.22
2023-07-15T19:22:41.214Z,28.21
2023-07-15T19:27:44.167Z,27.92
2023-07-15T19:32:47.096Z,27.65
2023-07-15T19:37:51.454Z,27.31
2023-07-15T19:42:54.571Z,27.19
2023-07-15T19:47:57.636Z,27.19
2023-07-15T19:53:02.028Z,26.71
2023-07-15T19:58:04.968Z,26.79
2023-07-15T20:03:08.048Z,26.93
2023-07-15T20:08:12.381Z,26.86
2023-07-15T20:13:17.571Z,26.72
2023-07-15T20:18:20.789Z,26.42
2023-07-15T20:23:25.073Z,26.47
2023-07-15T20:28:28.164Z,26.33
2023-07-15T20:33:31.185Z,26.04
2023-07-15T20:38:36.801Z,26.16
2023-07-15T20:43:39.807Z,26.81
2023-07-15T20:48:42.625Z,27.14
2023-07-15T20:53:46.798Z,27.31
2023-07-15T20:58:49.641Z,27.33
2023-07-15T21:03:53.100Z,27.37
2023-07-15T21:08:57.311Z,27.60
2023-07-15T21:14:00.331Z,27.54
2023-07-15T21:19:03.242Z,27.33
2023-07-15T21:24:07.736Z,27.35
2023-07-15T21:29:10.568Z,27.38
2023-07-15T21:34:13.466Z,27.30
2023-07-15T21:39:17.748Z,27.38
2023-07-15T21:44:20.577Z,27.18
2023-07-15T21:49:23.595Z,27.12
2023-07-15T21:54:27.825Z,27.08
2023-07-15T21:59:30.835Z,27.15
2023-07-15T22:04:34.821Z,27.00
2023-07-15T22:09:39.119Z,26.81
2023-07-15T22:14:41.897Z,26.44
2023-07-15T22:19:44.732Z,26.60
2023-07-15T22:24:48.859Z,26.85
2023-07-15T22:29:51.700Z,26.69
2023-07-15T22:34:54.517Z,26.70
2023-07-15T22:39:58.775Z,26.94
2023-07-15T22:45:01.683Z,26.93
2023-07-15T22:50:04.793Z,26.96
2023-07-15T22:55:09.702Z,27.15
2023-07-15T23:00:14.081Z,27.07
2023-07-15T23:05:16.947Z,26.95
2023-07-15T23:10:21.535Z,26.89
2023-07-15T23:15:24.350Z,27.11
2023-07-15T23:20:27.085Z,26.99
2023-07-15T23:25:31.217Z,26.86
2023-07-15T23:30:34.344Z,26.84
2023-07-15T23:35:41.236Z,26.81
2023-07-15T23:40:45.439Z,26.93
2023-07-15T23:45:48.198Z,26.84
2023-07-15T23:50:51.161Z,26.84
2023-07-15T23:55:55.421Z,26.32
